Time;durP1;ratioP1;P1;durP2;ratioP2;P2;SDS_P1;SDS_P2;PMS_P1;PMS_P2;Temp;Humidity;BMP_temperature;BMP_pressure;BME280_temperature;BME280_humidity;BME280_pressure;Samples;Min_cycle;Max_cycle;Signal;HPM_P1;HPM_P2
2022/08/22 00:01:04;;;;;;;8.50;2.15;;;;;;;30.23;35.38;101712.09;5064950;28;20032;-76
2022/08/22 00:03:36;;;;;;;9.48;2.78;;;;;;;30.54;34.95;101704.28;5073323;28;20133;-76
2022/08/22 00:06:17;;;;;;;4.60;2.03;;;;;;;31.03;34.07;101706.63;5054313;28;20021;-77
2022/08/22 00:08:57;;;;;;;10.57;2.40;;;;;;;30.98;33.94;101712.34;5065221;28;20135;-77
2022/08/22 00:11:36;;;;;;;7.50;2.30;;;;;;;30.87;34.34;101705.16;5053306;28;20446;-76
2022/08/22 00:14:13;;;;;;;13.80;3.03;;;;;;;30.37;34.98;101718.22;5056524;28;20399;-76
2022/08/22 00:16:52;;;;;;;7.15;2.90;;;;;;;30.98;34.40;101711.50;5055019;28;20028;-76
2022/08/22 00:19:26;;;;;;;9.35;2.50;;;;;;;31.08;34.00;101709.78;5057044;28;20478;-76
2022/08/22 00:21:52;;;;;;;7.10;2.15;;;;;;;31.30;33.91;101706.13;5065977;28;20116;-76
2022/08/22 00:24:27;;;;;;;8.85;2.35;;;;;;;30.81;34.53;101705.66;5067625;28;20086;-77
2022/08/22 00:27:08;;;;;;;7.57;2.30;;;;;;;30.89;34.58;101713.13;5071703;28;20166;-77
2022/08/22 00:29:41;;;;;;;5.53;2.60;;;;;;;30.62;34.60;101706.31;5076613;28;20564;-76
2022/08/22 00:32:17;;;;;;;;;;;;;;;30.69;34.95;101712.06;5065415;28;20106;-76
2022/08/22 00:34:55;;;;;;;7.25;2.35;;;;;;;30.80;34.92;101709.34;5061578;28;20076;-76
2022/08/22 00:37:31;;;;;;;12.93;3.67;;;;;;;31.01;34.05;101713.94;5073935;28;20024;-77
2022/08/22 00:40:08;;;;;;;6.60;2.40;;;;;;;31.02;34.57;101723.75;5063198;28;20040;-76
2022/08/22 00:42:50;;;;;;;10.02;3.58;;;;;;;30.86;34.47;101714.25;5087434;28;20105;-76
2022/08/22 00:45:38;;;;;;;7.47;2.60;;;;;;;30.55;35.40;101716.75;5036797;28;20033;-77
2022/08/22 00:48:34;;;;;;;7.75;2.10;;;;;;;30.76;34.55;101707.88;5053237;28;20111;-76
2022/08/22 00:51:31;;;;;;;10.68;2.50;;;;;;;30.90;34.02;101710.31;5037681;28;20037;-76
2022/08/22 00:54:07;;;;;;;9.55;2.63;;;;;;;30.96;33.99;101704.38;5046357;28;20465;-76
2022/08/22 00:56:54;;;;;;;9.85;3.25;;;;;;;30.09;35.49;101715.91;5050583;28;20027;-76
2022/08/22 00:59:31;;;;;;;5.22;2.25;;;;;;;30.29;35.15;101714.31;5040122;28;20029;-77
2022/08/22 01:02:34;;;;;;;11.38;3.10;;;;;;;30.51;34.82;101704.50;5046350;28;20081;-76
2022/08/22 01:05:21;;;;;;;9.98;3.10;;;;;;;30.38;35.45;101709.16;5042527;28;20033;-76
2022/08/22 01:08:08;;;;;;;11.68;2.40;;;;;;;30.71;34.82;101702.03;5060914;28;20064;-77
2022/08/22 01:10:58;;;;;;;8.82;2.90;;;;;;;30.49;35.19;101711.88;5032361;28;20370;-77
2022/08/22 01:14:06;;;;;;;9.73;2.80;;;;;;;30.54;35.34;101712.38;5039803;28;20043;-76
2022/08/22 01:17:18;;;;;;;8.88;2.92;;;;;;;30.57;34.87;101709.41;5068898;28;20051;-77
2022/08/22 01:20:29;;;;;;;9.85;2.80;;;;;;;30.39;35.62;101716.25;5011570;28;20094;-77
2022/08/22 01:23:09;;;;;;;11.38;3.00;;;;;;;30.14;35.50;101714.66;5066740;28;20063;-77
2022/08/22 01:26:15;;;;;;;11.18;2.90;;;;;;;30.15;35.80;101714.53;5046368;28;20029;-77
2022/08/22 01:29:05;;;;;;;11.20;3.13;;;;;;;30.23;35.56;101714.78;5032392;28;20081;-76
2022/08/22 01:31:37;;;;;;;8.32;3.00;;;;;;;30.53;35.61;101717.84;5063737;28;20392;-77
2022/08/22 01:34:21;;;;;;;14.07;3.42;;;;;;;29.73;36.71;101711.53;5068916;28;20037;-76
2022/08/22 01:37:17;;;;;;;6.78;2.83;;;;;;;29.64;36.56;101714.94;5036639;28;20063;-76
2022/08/22 01:39:43;;;;;;;11.18;3.78;;;;;;;30.13;35.67;101716.53;5057342;28;20499;-76
2022/08/22 01:42:33;;;;;;;7.82;3.28;;;;;;;30.47;35.26;101715.66;5061730;28;20022;-76
2022/08/22 01:45:29;;;;;;;8.50;3.13;;;;;;;30.49;34.85;101717.25;5054038;28;20040;-77
2022/08/22 01:47:58;;;;;;;10.90;3.10;;;;;;;30.42;35.55;101726.81;5054162;28;20033;-77
2022/08/22 01:50:35;;;;;;;8.82;3.13;;;;;;;29.60;36.56;101728.63;5055812;28;20090;-76
2022/08/22 01:53:26;;;;;;;9.80;3.05;;;;;;;30.05;36.26;101732.44;5061069;28;20048;-77
2022/08/22 01:55:57;;;;;;;7.68;3.10;;;;;;;30.24;35.86;101730.00;5055639;28;20226;-76
2022/08/22 01:58:29;;;;;;;7.78;2.72;;;;;;;30.44;35.50;101730.25;5061305;28;20032;-75
2022/08/22 02:01:02;;;;;;;10.37;3.13;;;;;;;30.42;35.69;101726.81;5051465;28;20037;-77
2022/08/22 02:03:49;;;;;;;12.98;3.13;;;;;;;30.60;34.72;101719.94;5062541;28;20025;-77
2022/08/22 02:06:22;;;;;;;10.30;2.92;;;;;;;30.41;35.52;101727.78;5053039;28;20043;-76
2022/08/22 02:09:05;;;;;;;14.60;3.25;;;;;;;30.23;35.01;101717.47;5068059;28;20082;-76
2022/08/22 02:11:56;;;;;;;9.55;3.20;;;;;;;30.19;35.25;101721.41;5052250;28;20033;-77
2022/08/22 02:14:31;;;;;;;8.93;3.08;;;;;;;30.36;35.21;101725.44;5046043;28;20033;-77
2022/08/22 02:17:16;;;;;;;8.02;2.78;;;;;;;30.48;34.79;101710.16;5053159;28;20060;-77
2022/08/22 02:20:01;;;;;;;9.43;2.63;;;;;;;30.44;35.00;101708.69;5062014;28;20028;-76
2022/08/22 02:22:38;;;;;;;14.52;2.85;;;;;;;30.06;35.17;101715.28;5052500;28;20090;-76
2022/08/22 02:25:15;;;;;;;11.65;2.50;;;;;;;29.46;36.55;101718.09;5065747;28;20598;-76
2022/08/22 02:28:08;;;;;;;9.05;2.83;;;;;;;29.80;35.78;101712.78;5056239;28;20036;-77
2022/08/22 02:30:46;;;;;;;8.77;2.65;;;;;;;30.43;35.12;101709.63;5051193;28;20025;-76
2022/08/22 02:33:37;;;;;;;12.43;2.60;;;;;;;30.32;35.10;101706.94;5064111;28;20033;-77
2022/08/22 02:36:15;;;;;;;12.13;3.03;;;;;;;30.27;35.30;101697.38;5040322;28;20112;-77
2022/08/22 02:38:54;;;;;;;9.63;2.70;;;;;;;30.27;34.91;101702.78;5052672;28;20039;-76
2022/08/22 02:41:50;;;;;;;10.90;2.28;;;;;;;30.61;33.99;101699.19;5066189;28;20021;-77
2022/08/22 02:44:26;;;;;;;8.35;2.08;;;;;;;29.94;34.84;101696.41;5064252;28;20079;-76
2022/08/22 02:46:58;;;;;;;4.95;2.03;;;;;;;30.19;35.09;101699.84;5066401;28;20342;-76
2022/08/22 02:49:40;;;;;;;9.70;2.50;;;;;;;30.37;34.01;101710.97;5049764;28;20309;-77
2022/08/22 02:52:22;;;;;;;3.22;1.90;;;;;;;30.67;33.88;101703.25;5048040;28;20029;-77
2022/08/22 02:54:57;;;;;;;6.07;1.83;;;;;;;30.49;34.14;101711.88;5056657;28;20441;-76
2022/08/22 02:57:44;;;;;;;7.25;2.00;;;;;;;30.57;33.82;101703.13;5051987;28;20028;-76
2022/08/22 03:00:21;;;;;;;11.15;2.28;;;;;;;30.41;34.24;101700.81;5042246;28;20123;-76
2022/08/22 03:03:05;;;;;;;8.55;2.63;;;;;;;30.53;34.20;101702.53;5047566;28;20508;-76
2022/08/22 03:05:37;;;;;;;8.82;2.58;;;;;;;30.38;34.35;101698.38;5035245;28;20032;-76
2022/08/22 03:08:26;;;;;;;9.15;2.60;;;;;;;30.61;33.97;101691.13;5059228;28;20021;-76
2022/08/22 03:11:16;;;;;;;8.30;2.35;;;;;;;30.99;33.41;101686.22;5050995;28;20081;-76
2022/08/22 03:13:54;;;;;;;8.57;2.17;;;;;;;30.88;33.56;101690.66;5053546;28;20033;-76
2022/08/22 03:16:39;;;;;;;9.13;2.38;;;;;;;30.85;33.80;101680.13;5034848;28;20033;-76
2022/08/22 03:19:16;;;;;;;8.45;2.67;;;;;;;30.58;34.75;101681.47;5022131;28;20037;-76
2022/08/22 03:21:50;;;;;;;12.73;2.85;;;;;;;30.67;34.75;101676.28;5038148;28;20028;-76
2022/08/22 03:24:38;;;;;;;7.53;2.20;;;;;;;30.61;34.73;101683.00;5036074;28;20025;-76
2022/08/22 03:27:16;;;;;;;6.18;2.35;;;;;;;30.70;34.16;101667.94;5044992;28;20037;-76
2022/08/22 03:29:49;;;;;;;9.75;2.38;;;;;;;30.59;34.22;101668.81;5038630;28;20108;-77
2022/08/22 03:32:19;;;;;;;9.50;3.10;;;;;;;30.82;33.62;101658.81;5061122;28;20043;-76
2022/08/22 03:34:56;;;;;;;9.45;2.75;;;;;;;30.26;34.75;101662.47;5046258;28;20035;-77
2022/08/22 03:37:30;;;;;;;7.30;2.28;;;;;;;29.73;35.85;101663.91;5053123;28;20032;-77
2022/08/22 03:40:42;;;;;;;8.25;2.63;;;;;;;30.04;35.50;101666.03;5064115;28;20047;-76
2022/08/22 03:43:45;;;;;;;7.93;3.03;;;;;;;29.97;35.97;101662.13;5051547;28;20049;-77
2022/08/22 03:46:16;;;;;;;8.70;3.00;;;;;;;29.72;36.21;101664.03;5033303;28;20090;-77
2022/08/22 03:49:38;;;;;;;6.20;2.90;;;;;;;29.74;35.93;101660.22;5033485;28;20413;-76
2022/08/22 03:52:10;;;;;;;6.22;2.45;;;;;;;29.46;36.43;101664.22;4983980;28;20212;-76
2022/08/22 03:54:41;;;;;;;9.55;2.75;;;;;;;29.59;36.50;101656.91;4969413;28;20019;-77
2022/08/22 03:57:09;;;;;;;8.20;3.00;;;;;;;29.58;36.48;101663.28;5019843;28;20458;-76
2022/08/22 03:59:58;;;;;;;7.45;2.38;;;;;;;29.58;36.72;101663.28;5059237;28;20029;-76
2022/08/22 04:03:03;;;;;;;7.10;2.60;;;;;;;29.69;36.55;101661.56;5036301;28;20029;-76
2022/08/22 04:05:41;;;;;;;6.65;2.83;;;;;;;29.56;36.65;101665.22;5033434;28;20448;-77
2022/08/22 04:08:22;;;;;;;6.00;2.72;;;;;;;29.43;36.99;101667.16;5033083;28;20037;-76
2022/08/22 04:11:07;;;;;;;13.05;3.28;;;;;;;29.43;37.13;101659.09;5038002;28;20117;-76
2022/08/22 04:13:49;;;;;;;12.60;4.63;;;;;;;29.27;36.97;101671.00;5057739;28;20025;-77
2022/08/22 04:16:20;;;;;;;8.00;2.90;;;;;;;29.59;36.49;101670.38;5062164;28;20516;-77
2022/08/22 04:19:04;;;;;;;10.68;3.10;;;;;;;29.69;36.19;101680.41;5038568;28;20283;-76
2022/08/22 04:21:48;;;;;;;11.32;3.35;;;;;;;29.67;36.81;101668.91;5038137;28;20035;-77
2022/08/22 04:24:32;;;;;;;11.73;3.60;;;;;;;29.44;36.62;101671.56;5051952;28;20033;-76
2022/08/22 04:27:17;;;;;;;8.27;2.92;;;;;;;29.65;36.44;101678.94;5032717;28;20040;-76
2022/08/22 04:29:54;;;;;;;8.77;3.35;;;;;;;29.04;37.33;101674.56;5032963;28;20115;-77
2022/08/22 04:32:28;;;;;;;9.10;3.15;;;;;;;29.25;37.09;101678.38;5039743;28;20078;-77
2022/08/22 04:35:09;;;;;;;7.38;3.05;;;;;;;29.39;37.15;101679.16;5036339;28;20404;-77
2022/08/22 04:38:21;;;;;;;8.73;2.95;;;;;;;29.59;36.52;101686.53;5034079;28;20028;-77
2022/08/22 04:40:55;;;;;;;10.80;3.25;;;;;;;29.31;36.72;101692.34;5054414;28;20079;-76
2022/08/22 04:43:34;;;;;;;10.15;2.78;;;;;;;29.05;37.75;101687.06;5046623;28;20048;-76
2022/08/22 04:46:20;;;;;;;9.32;2.95;;;;;;;29.27;37.04;101691.69;5058423;28;20028;-76
2022/08/22 04:49:06;;;;;;;13.98;3.00;;;;;;;29.50;36.56;101692.63;5053177;28;20111;-77
2022/08/22 04:51:40;;;;;;;11.52;3.08;;;;;;;29.40;36.79;101691.63;5080406;28;20114;-77
2022/08/22 04:54:18;;;;;;;7.88;2.97;;;;;;;29.01;37.17;101690.94;5067114;28;20048;-77
2022/08/22 04:57:14;;;;;;;12.88;3.50;;;;;;;29.23;37.35;101696.41;5052074;28;20034;-77
2022/08/22 04:59:41;;;;;;;7.20;2.97;;;;;;;29.35;36.98;101701.91;5076163;28;20024;-77
2022/08/22 05:02:10;;;;;;;11.25;3.00;;;;;;;28.90;37.57;101695.28;5054013;28;20048;-77
2022/08/22 05:04:40;;;;;;;10.43;3.63;;;;;;;29.15;37.50;101706.06;5054888;28;20529;-77
2022/08/22 05:07:15;;;;;;;8.63;3.10;;;;;;;29.03;37.38;101700.63;5087219;28;20024;-77
2022/08/22 05:09:47;;;;;;;11.05;3.70;;;;;;;29.18;37.69;101705.81;5067893;28;20052;-77
2022/08/22 05:12:20;;;;;;;9.13;3.30;;;;;;;29.28;37.26;101710.44;5074642;28;20059;-77
2022/08/22 05:14:55;;;;;;;9.00;3.13;;;;;;;29.19;37.53;101700.31;5071606;28;20035;-77
2022/08/22 05:17:24;;;;;;;8.85;3.20;;;;;;;29.31;37.31;101711.19;5088755;28;20043;-77
2022/08/22 05:19:55;;;;;;;7.82;2.90;;;;;;;29.43;37.71;101712.94;5095109;28;20095;-77
2022/08/22 05:22:26;;;;;;;10.30;3.35;;;;;;;28.83;38.15;101706.63;5076446;28;20032;-77
2022/08/22 05:24:58;;;;;;;12.95;3.55;;;;;;;29.15;37.37;101704.22;5074635;28;20032;-77
2022/08/22 05:27:29;;;;;;;12.25;3.10;;;;;;;28.89;38.12;101720.50;5069043;28;20036;-77
2022/08/22 05:30:01;;;;;;;10.00;3.70;;;;;;;29.13;37.76;101713.38;5056491;28;20039;-77
2022/08/22 05:32:54;;;;;;;12.30;3.72;;;;;;;29.28;37.16;101715.81;5074394;28;20037;-77
2022/08/22 05:35:31;;;;;;;8.02;3.03;;;;;;;29.19;36.79;101712.94;5065223;28;20047;-77
2022/08/22 05:37:57;;;;;;;8.00;3.42;;;;;;;29.18;37.10;101714.78;5055562;28;20097;-76
2022/08/22 05:40:26;;;;;;;14.43;4.05;;;;;;;29.26;37.21;101709.69;5064035;28;20111;-77
2022/08/22 05:42:54;;;;;;;7.43;3.10;;;;;;;29.73;36.31;101711.53;5088635;28;20045;-77
2022/08/22 05:45:21;;;;;;;10.13;3.63;;;;;;;29.23;37.73;101712.56;5047650;28;20035;-77
2022/08/22 05:48:01;;;;;;;10.32;3.63;;;;;;;29.08;37.53;101724.50;5049224;28;20030;-77
2022/08/22 05:50:42;;;;;;;13.88;3.70;;;;;;;27.99;39.49;101723.28;5069746;28;20439;-77
2022/08/22 05:53:19;;;;;;;10.95;3.83;;;;;;;28.75;38.64;101715.25;5039093;28;20044;-77
2022/08/22 05:56:03;;;;;;;10.25;3.85;;;;;;;28.98;37.92;101723.47;5053512;28;20064;-77
2022/08/22 05:58:37;;;;;;;10.70;3.67;;;;;;;29.91;36.29;101718.22;5068121;28;20031;-77
2022/08/22 06:01:24;;;;;;;10.50;4.00;;;;;;;29.86;36.49;101720.41;5044606;28;20074;-76
2022/08/22 06:03:56;;;;;;;12.05;4.30;;;;;;;29.32;37.03;101716.44;5043188;28;20458;-77
2022/08/22 06:06:23;;;;;;;9.52;4.38;;;;;;;29.24;37.20;101725.09;5053056;28;20029;-76
2022/08/22 06:09:27;;;;;;;8.70;3.25;;;;;;;29.28;37.11;101726.56;5045098;28;20508;-78
2022/08/22 06:12:10;;;;;;;11.73;3.75;;;;;;;28.71;38.29;101728.06;5008806;28;20041;-77
2022/08/22 06:14:49;;;;;;;17.55;5.50;;;;;;;29.43;36.95;101729.94;5047069;28;20070;-76
2022/08/22 06:17:21;;;;;;;11.20;4.55;;;;;;;29.51;36.88;101737.44;5049286;28;20040;-77
2022/08/22 06:19:51;;;;;;;9.25;3.17;;;;;;;29.58;37.25;101733.28;5049073;28;20075;-77
2022/08/22 06:22:24;;;;;;;9.23;3.38;;;;;;;29.57;36.97;101736.97;5035798;28;20362;-77
2022/08/22 06:24:52;;;;;;;12.18;3.70;;;;;;;29.55;37.03;101740.75;5036188;28;20437;-77
2022/08/22 06:27:21;;;;;;;15.10;4.40;;;;;;;28.82;38.38;101739.88;5035357;28;20020;-77
2022/08/22 06:29:55;;;;;;;8.85;3.35;;;;;;;29.66;37.10;101740.75;5036298;28;20025;-77
2022/08/22 06:32:28;;;;;;;13.95;4.47;;;;;;;29.52;37.58;101739.13;5055210;28;20495;-77
2022/08/22 06:35:02;;;;;;;9.52;4.93;;;;;;;29.45;37.09;101737.91;5035912;28;20025;-78
2022/08/22 06:37:36;;;;;;;12.30;4.20;;;;;;;29.35;37.91;101736.91;5062131;28;20472;-77
2022/08/22 06:40:05;;;;;;;16.98;5.13;;;;;;;29.90;36.55;101740.75;5052576;28;20463;-77
2022/08/22 06:42:32;;;;;;;16.40;4.10;;;;;;;28.79;38.23;101740.97;5039051;28;20036;-77
2022/08/22 06:45:07;;;;;;;11.80;4.32;;;;;;;29.16;38.15;101737.38;5036010;28;20020;-77
2022/08/22 06:47:44;;;;;;;11.02;3.90;;;;;;;29.64;37.49;101741.88;5051456;28;20035;-77
2022/08/22 06:50:19;;;;;;;14.73;4.88;;;;;;;29.13;38.34;101730.41;5051287;28;20043;-78
2022/08/22 06:53:04;;;;;;;14.85;4.38;;;;;;;29.75;37.52;101739.22;5036894;28;20047;-78
2022/08/22 06:55:30;;;;;;;9.88;3.65;;;;;;;29.87;36.79;101732.91;5051449;28;20067;-77
2022/08/22 06:58:03;;;;;;;7.65;3.63;;;;;;;30.60;35.48;101733.41;5062323;28;20477;-78
2022/08/22 07:00:33;;;;;;;12.38;4.45;;;;;;;29.93;37.57;101743.19;5050587;28;20073;-77
2022/08/22 07:03:19;;;;;;;11.25;3.83;;;;;;;30.33;36.53;101739.16;5054680;28;20063;-77
2022/08/22 07:05:45;;;;;;;9.50;3.83;;;;;;;30.28;37.01;101725.19;5046972;28;20047;-77
2022/08/22 07:08:17;;;;;;;10.80;4.18;;;;;;;30.74;35.98;101726.03;5072486;28;20492;-77
2022/08/22 07:10:54;;;;;;;11.00;4.00;;;;;;;30.96;35.81;101717.03;5051435;28;20443;-77
2022/08/22 07:13:20;;;;;;;13.65;4.88;;;;;;;30.99;35.60;101715.91;5037067;28;20059;-77
2022/08/22 07:15:53;;;;;;;13.80;4.18;;;;;;;30.25;37.18;101718.25;5037733;28;20056;-77
2022/08/22 07:18:22;;;;;;;15.45;4.82;;;;;;;30.34;37.22;101707.69;5047251;28;20039;-77
2022/08/22 07:20:51;;;;;;;10.93;4.30;;;;;;;30.88;36.63;101704.16;5066572;28;20571;-77
2022/08/22 07:23:35;;;;;;;17.38;4.55;;;;;;;31.85;35.56;101705.94;5041785;28;20021;-77
2022/08/22 07:26:18;;;;;;;13.30;3.88;;;;;;;33.43;32.64;101702.66;5070386;28;20025;-77
2022/08/22 07:28:56;;;;;;;16.20;4.53;;;;;;;34.96;29.78;101702.28;5035404;28;20025;-77
2022/08/22 07:31:33;;;;;;;9.73;3.75;;;;;;;36.04;28.23;101703.09;5034624;28;20028;-78
2022/08/22 07:34:06;;;;;;;10.57;3.55;;;;;;;37.34;26.44;101706.34;5040947;28;20028;-77
2022/08/22 07:36:47;;;;;;;10.45;3.50;;;;;;;38.04;25.62;101698.56;5038651;28;20541;-78
2022/08/22 07:39:37;;;;;;;10.80;3.50;;;;;;;37.87;25.48;101698.63;5067651;28;20044;-77
2022/08/22 07:42:17;;;;;;;13.60;3.95;;;;;;;38.49;25.11;101699.72;5035031;28;20090;-78
2022/08/22 07:44:55;;;;;;;10.82;3.35;;;;;;;38.59;24.84;101702.22;5055664;28;20059;-77
2022/08/22 07:47:26;;;;;;;9.45;3.58;;;;;;;39.41;23.56;101689.84;5070219;28;20055;-77
2022/08/22 07:49:56;;;;;;;9.90;3.60;;;;;;;40.24;23.04;101690.63;5059673;28;20082;-77
2022/08/22 07:52:22;;;;;;;8.15;3.20;;;;;;;40.71;22.17;101702.13;5055968;28;20024;-77
2022/08/22 07:55:11;;;;;;;10.07;3.08;;;;;;;40.62;22.39;101701.41;5055867;28;20115;-77
2022/08/22 07:57:42;;;;;;;14.15;3.85;;;;;;;39.23;23.25;101704.72;5054180;28;20069;-77
2022/08/22 08:00:17;;;;;;;9.60;4.20;;;;;;;40.06;23.04;101706.63;5060976;28;20036;-77
2022/08/22 08:02:46;;;;;;;12.20;3.65;;;;;;;40.43;22.15;101704.75;5074317;28;20112;-77
2022/08/22 08:05:13;;;;;;;10.60;3.10;;;;;;;39.77;23.29;101706.41;5071752;28;20074;-77
2022/08/22 08:07:42;;;;;;;9.27;3.38;;;;;;;41.12;21.29;101700.63;5053777;28;20032;-77
2022/08/22 08:10:15;;;;;;;8.57;3.10;;;;;;;42.67;20.22;101706.81;5054223;28;20078;-77
2022/08/22 08:12:46;;;;;;;8.65;3.17;;;;;;;41.66;20.26;101705.50;5056204;28;20081;-77
2022/08/22 08:15:17;;;;;;;8.55;3.60;;;;;;;40.95;21.51;101714.63;5070870;28;20400;-77
2022/08/22 08:17:46;;;;;;;8.35;3.13;;;;;;;40.97;21.93;101711.69;5041717;28;20028;-76
2022/08/22 08:20:16;;;;;;;9.07;3.25;;;;;;;41.01;22.08;101708.38;5091696;28;20553;-76
2022/08/22 08:22:43;;;;;;;10.20;3.50;;;;;;;40.60;21.55;101706.25;5093360;28;20029;-76
2022/08/22 08:25:14;;;;;;;8.65;3.30;;;;;;;41.24;21.35;101700.97;5080553;28;20031;-76
2022/08/22 08:30:45;;;;;;;6.70;3.28;;;;;;;40.57;21.43;101695.66;5091155;28;20042;-76
2022/08/22 08:33:18;;;;;;;13.80;3.47;;;;;;;41.64;21.44;101693.88;5076047;28;20034;-76
2022/08/22 08:35:51;;;;;;;10.30;4.10;;;;;;;40.63;21.81;101688.56;5055232;28;20369;-76
2022/08/22 08:38:25;;;;;;;10.85;2.83;;;;;;;40.14;23.31;101690.09;5060623;28;20400;-76
2022/08/22 08:41:28;;;;;;;9.60;3.40;;;;;;;40.03;22.41;101700.44;5061053;28;20423;-76
2022/08/22 08:44:17;;;;;;;11.95;2.97;;;;;;;40.70;22.52;101695.81;5078257;28;20119;-76
2022/08/22 08:47:10;;;;;;;8.95;2.80;;;;;;;41.18;22.42;101688.91;5043837;28;20060;-76
2022/08/22 08:49:49;;;;;;;7.05;3.53;;;;;;;41.18;21.90;101691.66;5047637;28;20031;-76
2022/08/22 08:52:33;;;;;;;10.20;3.63;;;;;;;41.37;21.64;101687.34;5036498;28;20024;-76
2022/08/22 08:55:15;;;;;;;9.60;3.53;;;;;;;41.61;21.41;101685.22;5052126;28;20032;-76
2022/08/22 08:58:11;;;;;;;9.00;2.72;;;;;;;40.94;21.50;101682.78;5053497;28;20055;-77
2022/08/22 09:00:40;;;;;;;8.52;3.00;;;;;;;42.28;20.57;101694.66;5059415;28;20062;-77
2022/08/22 09:03:18;;;;;;;9.13;2.45;;;;;;;41.88;20.41;101691.72;5056439;28;20021;-76
2022/08/22 09:05:50;;;;;;;6.90;2.90;;;;;;;42.67;19.49;101687.59;5052723;28;20039;-77
2022/08/22 09:08:25;;;;;;;8.20;3.38;;;;;;;41.62;20.56;101682.28;5055971;28;20494;-77
2022/08/22 09:11:20;;;;;;;9.07;2.97;;;;;;;41.93;20.69;101691.13;5067458;28;20037;-77
2022/08/22 09:14:29;;;;;;;10.95;2.95;;;;;;;42.41;19.55;101691.09;5042016;28;20119;-77
2022/08/22 09:17:16;;;;;;;6.35;2.45;;;;;;;43.01;18.93;101691.22;5051486;28;20029;-77
2022/08/22 09:20:03;;;;;;;5.95;2.30;;;;;;;42.93;18.87;101679.59;5053691;28;20032;-76
2022/08/22 09:22:54;;;;;;;10.48;2.83;;;;;;;41.74;20.89;101678.94;5036491;28;20063;-77
2022/08/22 09:25:42;;;;;;;5.68;2.50;;;;;;;41.00;20.81;101684.75;5032879;28;20025;-75
2022/08/22 09:28:18;;;;;;;8.93;2.72;;;;;;;42.31;20.12;101680.50;5005039;28;20134;-78
2022/08/22 09:31:05;;;;;;;8.77;2.50;;;;;;;42.24;20.17;101674.16;5061416;28;20025;-76
2022/08/22 09:33:59;;;;;;;9.18;2.17;;;;;;;42.17;19.14;101673.28;5053603;28;20024;-77
2022/08/22 09:36:53;;;;;;;11.63;2.28;;;;;;;42.54;20.03;101679.31;5056293;28;20041;-78
2022/08/22 09:39:36;;;;;;;7.65;2.08;;;;;;;41.52;21.60;101663.44;5027519;28;20504;-77
2022/08/22 09:42:25;;;;;;;6.03;2.00;;;;;;;40.60;20.88;101664.31;5033952;28;20147;-77
2022/08/22 09:45:05;;;;;;;7.00;2.05;;;;;;;41.19;19.47;101668.63;5045311;28;20072;-76
2022/08/22 09:47:41;;;;;;;7.10;2.08;;;;;;;41.53;19.90;101661.53;5053627;28;20047;-76
2022/08/22 09:50:11;;;;;;;6.28;2.05;;;;;;;42.84;18.63;101662.44;5064879;28;20119;-76
2022/08/22 09:52:55;;;;;;;4.38;1.80;;;;;;;41.49;18.88;101660.25;5064798;28;20027;-76
2022/08/22 09:55:27;;;;;;;9.48;1.90;;;;;;;41.88;19.30;101656.88;5065302;28;20465;-76
2022/08/22 09:58:02;;;;;;;7.47;2.17;;;;;;;40.69;19.32;101653.00;5081683;28;20050;-75
2022/08/22 10:00:43;;;;;;;6.55;1.50;;;;;;;41.10;18.65;101657.00;5058549;28;20395;-75
2022/08/22 10:03:50;;;;;;;8.07;1.75;;;;;;;39.96;19.51;101653.00;5076655;28;20036;-75
2022/08/22 10:06:24;;;;;;;5.07;1.95;;;;;;;39.99;20.91;101649.88;5087380;28;20528;-75
2022/08/22 10:09:31;;;;;;;8.95;2.00;;;;;;;40.63;20.26;101642.00;5065010;28;20027;-75
2022/08/22 10:12:09;;;;;;;5.63;1.73;;;;;;;39.69;20.30;101644.47;5068855;28;20024;-75
2022/08/22 10:14:40;;;;;;;7.57;2.05;;;;;;;39.91;21.09;101636.28;5064484;28;20035;-77
2022/08/22 10:17:27;;;;;;;9.23;1.98;;;;;;;39.41;21.54;101637.91;5056576;28;20032;-78
2022/08/22 10:20:07;;;;;;;4.85;1.63;;;;;;;39.14;20.40;101629.25;5059697;28;20123;-77
2022/08/22 10:23:04;;;;;;;6.68;1.92;;;;;;;38.89;22.43;101631.38;5056442;28;20025;-76
2022/08/22 10:25:41;;;;;;;5.95;1.67;;;;;;;38.71;22.00;101640.72;5068416;28;20028;-77
2022/08/22 10:28:25;;;;;;;9.65;1.92;;;;;;;38.65;21.41;101631.34;5070495;28;20040;-76
2022/08/22 10:31:04;;;;;;;6.57;2.10;;;;;;;38.44;21.61;101629.28;5057245;28;20043;-77
2022/08/22 10:34:08;;;;;;;10.43;1.92;;;;;;;39.00;21.62;101629.03;5073416;28;20172;-77
2022/08/22 10:36:39;;;;;;;8.00;2.03;;;;;;;38.00;21.87;101632.56;5076196;28;20016;-77
2022/08/22 10:39:10;;;;;;;6.55;1.98;;;;;;;38.07;22.00;101632.72;5072546;28;20066;-78
2022/08/22 10:42:03;;;;;;;6.00;1.92;;;;;;;37.49;23.23;101630.19;5093359;28;20028;-77
2022/08/22 10:44:48;;;;;;;5.32;2.30;;;;;;;37.55;23.14;101632.22;5076101;28;20056;-77
2022/08/22 10:47:19;;;;;;;11.68;3.60;;;;;;;37.46;23.13;101627.81;5070776;28;20540;-76
2022/08/22 10:49:51;;;;;;;9.82;2.72;;;;;;;37.83;23.09;101621.75;5060011;28;20085;-77
2022/08/22 10:52:23;;;;;;;11.38;2.15;;;;;;;37.68;22.20;101628.94;5041133;28;20508;-78
2022/08/22 10:54:56;;;;;;;8.70;2.80;;;;;;;37.87;22.76;101626.84;5040350;28;20415;-77
2022/08/22 10:57:35;;;;;;;7.78;2.55;;;;;;;37.71;23.70;101627.75;5057823;28;20024;-77
2022/08/22 11:00:00;;;;;;;11.32;2.72;;;;;;;38.05;23.64;101626.59;5059654;28;20029;-77
2022/08/22 11:02:50;;;;;;;10.73;2.25;;;;;;;38.07;22.78;101627.25;5037800;28;20059;-78
2022/08/22 11:05:22;;;;;;;6.75;2.17;;;;;;;37.41;22.83;101627.47;5052413;28;20039;-77
2022/08/22 11:07:59;;;;;;;7.90;2.07;;;;;;;37.06;23.03;101635.00;5037300;28;20028;-76
2022/08/22 11:10:43;;;;;;;7.20;2.53;;;;;;;37.43;23.23;101630.91;5043442;28;20048;-77
2022/08/22 11:13:25;;;;;;;6.40;1.88;;;;;;;38.37;21.92;101635.66;5041684;28;20393;-77
2022/08/22 11:16:04;;;;;;;12.13;2.67;;;;;;;38.31;22.06;101629.88;5039253;28;20078;-77
2022/08/22 11:18:37;;;;;;;8.45;2.50;;;;;;;38.32;21.52;101631.59;5057412;28;20790;-77
2022/08/22 11:21:20;;;;;;;8.32;1.70;;;;;;;38.24;21.77;101645.28;5061820;28;20033;-77
2022/08/22 11:23:59;;;;;;;10.20;2.67;;;;;;;38.62;21.14;101631.72;5039070;28;20035;-77
2022/08/22 11:26:33;;;;;;;6.90;2.97;;;;;;;38.90;21.31;101633.06;5071241;28;20511;-77
2022/08/22 11:29:01;;;;;;;8.32;1.90;;;;;;;38.45;20.93;101625.53;5042467;28;20507;-77
2022/08/22 11:31:32;;;;;;;9.13;1.95;;;;;;;36.75;21.85;101625.59;5040240;28;20025;-77
2022/08/22 11:34:09;;;;;;;6.90;2.03;;;;;;;38.20;22.05;101627.53;5044277;28;20124;-77
2022/08/22 11:36:51;;;;;;;10.38;2.45;;;;;;;37.87;22.60;101622.25;5057737;28;20462;-76
2022/08/22 11:39:44;;;;;;;9.70;2.72;;;;;;;37.92;22.88;101628.03;5060019;28;20050;-77
2022/08/22 11:42:39;;;;;;;11.95;2.70;;;;;;;38.29;21.64;101631.97;5042490;28;20036;-76
2022/08/22 11:45:07;;;;;;;7.78;2.25;;;;;;;38.47;22.06;101622.59;5041101;28;20053;-77
2022/08/22 11:47:51;;;;;;;7.65;2.80;;;;;;;39.93;20.72;101623.28;5054898;28;20025;-77
2022/08/22 11:50:39;;;;;;;9.40;2.58;;;;;;;39.94;21.05;101630.47;5040452;28;20426;-76
2022/08/22 11:53:10;;;;;;;7.07;2.33;;;;;;;40.01;20.12;101625.91;5052022;28;20542;-76
2022/08/22 11:55:48;;;;;;;12.47;3.03;;;;;;;40.11;20.91;101619.31;5051573;28;20036;-76
2022/08/22 11:58:44;;;;;;;11.95;3.17;;;;;;;39.21;20.87;101624.78;5053636;28;20031;-76
2022/08/22 12:01:39;;;;;;;7.13;2.28;;;;;;;40.20;19.57;101626.34;5058397;28;20038;-76
2022/08/22 12:04:14;;;;;;;8.73;2.20;;;;;;;40.25;20.22;101623.91;5039001;28;20035;-75
2022/08/22 12:07:11;;;;;;;11.05;2.60;;;;;;;38.83;21.13;101613.84;5037541;28;20021;-75
2022/08/22 12:10:05;;;;;;;7.45;2.10;;;;;;;40.70;19.59;101613.63;5039802;28;20060;-76
2022/08/22 12:12:56;;;;;;;10.05;2.70;;;;;;;39.44;20.84;101612.94;5054786;28;20024;-70
2022/08/22 12:15:55;;;;;;;10.43;3.00;;;;;;;39.27;20.47;101613.09;5034056;28;20122;-71
2022/08/22 12:18:50;;;;;;;11.68;2.75;;;;;;;40.30;20.32;101609.59;5036333;28;20032;-70
2022/08/22 12:21:29;;;;;;;7.90;2.30;;;;;;;41.06;19.45;101595.41;5040478;28;20058;-72
2022/08/22 12:24:09;;;;;;;4.68;2.30;;;;;;;39.65;20.31;101604.84;5047545;28;20492;-71